Time;durP1;ratioP1;P1;durP2;ratioP2;P2;SDS_P1;SDS_P2;PMS_P1;PMS_P2;Temp;Humidity;BMP_temperature;BMP_pressure;BME280_temperature;BME280_humidity;BME280_pressure;Samples;Min_cycle;Max_cycle;Signal;HPM_P1;HPM_P2
2020/12/20 00:00:41;;;;;;;8.23;1.40;;;;;;;8.69;78.46;99459.09;4406965;32;20029;-71
2020/12/20 00:03:07;;;;;;;5.15;1.40;;;;;;;8.63;78.13;99460.91;4411965;32;20397;-71
2020/12/20 00:05:32;;;;;;;11.75;1.58;;;;;;;8.68;78.17;99468.75;4406713;32;20469;-73
2020/12/20 00:07:58;;;;;;;9.88;1.85;;;;;;;8.68;77.92;99460.34;4403920;32;20104;-71
2020/12/20 00:10:24;;;;;;;5.10;1.08;;;;;;;8.76;77.85;99468.03;4407650;32;20391;-72
2020/12/20 00:12:51;;;;;;;3.72;1.20;;;;;;;8.71;77.23;99468.59;4412106;32;20098;-73
2020/12/20 00:15:18;;;;;;;4.82;1.25;;;;;;;8.76;76.92;99465.22;4404068;32;20091;-73
2020/12/20 00:17:46;;;;;;;5.75;1.10;;;;;;;8.82;77.19;99468.22;4404842;32;20166;-71
2020/12/20 00:20:12;;;;;;;5.47;1.05;;;;;;;8.74;77.12;99470.50;4408293;32;20092;-71
2020/12/20 00:22:38;;;;;;;4.37;0.77;;;;;;;8.73;77.27;99474.53;4408835;32;20483;-72
2020/12/20 00:25:03;;;;;;;9.32;1.15;;;;;;;8.68;77.58;99468.75;4405269;32;20018;-73
2020/12/20 00:27:29;;;;;;;5.85;1.10;;;;;;;8.67;77.33;99489.59;4408150;32;20078;-73
2020/12/20 00:29:55;;;;;;;9.63;1.27;;;;;;;8.67;77.76;99484.78;4407368;32;20350;-70
2020/12/20 00:32:20;;;;;;;15.23;1.62;;;;;;;8.57;78.07;99473.94;4407169;32;20430;-72
2020/12/20 00:34:46;;;;;;;12.15;1.30;;;;;;;8.63;77.90;99481.34;4419389;26;20093;-73
2020/12/20 00:37:13;;;;;;;6.90;1.45;;;;;;;8.60;78.13;99476.63;4410085;32;20055;-71
2020/12/20 00:39:39;;;;;;;9.23;1.23;;;;;;;8.64;77.61;99477.28;4408098;32;20099;-71
2020/12/20 00:42:06;;;;;;;8.60;1.27;;;;;;;8.62;77.81;99478.97;4407482;32;20109;-71
2020/12/20 00:44:32;;;;;;;9.63;1.20;;;;;;;8.57;77.72;99473.94;4406096;32;20057;-71
2020/12/20 00:46:59;;;;;;;8.65;1.58;;;;;;;8.60;77.96;99473.84;4407087;32;20061;-71
2020/12/20 00:49:26;;;;;;;4.40;1.33;;;;;;;8.61;77.92;99486.59;4408651;32;20488;-72
2020/12/20 00:51:56;;;;;;;8.82;1.83;;;;;;;8.63;77.94;99475.72;4414943;32;20026;-72
2020/12/20 00:54:21;;;;;;;10.60;1.95;;;;;;;8.61;78.13;99475.37;4409837;32;20081;-72
2020/12/20 00:56:47;;;;;;;10.85;2.15;;;;;;;8.54;78.18;99480.47;4408206;32;20026;-71
2020/12/20 00:59:13;;;;;;;8.20;2.62;;;;;;;8.58;78.07;99486.72;4409190;32;20330;-71
2020/12/20 01:01:39;;;;;;;13.45;2.58;;;;;;;8.56;78.13;99486.41;4411716;32;20046;-71
2020/12/20 01:04:05;;;;;;;8.43;2.08;;;;;;;8.56;78.31;99487.19;4408811;32;20061;-71
2020/12/20 01:06:31;;;;;;;7.85;2.28;;;;;;;8.53;78.15;99485.28;4405677;32;20542;-73
2020/12/20 01:08:57;;;;;;;13.07;1.70;;;;;;;8.55;78.17;99480.00;4409542;32;20089;-72
2020/12/20 01:11:22;;;;;;;12.60;1.87;;;;;;;8.56;78.02;99486.41;4409336;32;20085;-70
2020/12/20 01:13:50;;;;;;;12.98;2.47;;;;;;;8.55;77.86;99476.41;4407850;32;20046;-71
2020/12/20 01:16:19;;;;;;;7.50;1.83;;;;;;;8.63;77.81;99478.53;4410807;32;20052;-71
2020/12/20 01:18:45;;;;;;;11.88;2.20;;;;;;;8.59;77.75;99482.69;4407445;32;20116;-72
2020/12/20 01:21:11;;;;;;;9.57;1.77;;;;;;;8.59;77.97;99482.69;4411845;32;20061;-72
2020/12/20 01:23:37;;;;;;;8.35;1.87;;;;;;;8.55;77.99;99487.62;4409958;32;20119;-71
2020/12/20 01:26:03;;;;;;;10.13;2.10;;;;;;;8.60;77.79;99478.66;4409004;32;20073;-71
2020/12/20 01:28:30;;;;;;;9.73;2.35;;;;;;;8.63;77.95;99483.34;4408157;32;20083;-72
2020/12/20 01:30:56;;;;;;;11.27;2.28;;;;;;;8.68;77.78;99483.53;4408529;32;20143;-71
2020/12/20 01:33:23;;;;;;;6.55;1.27;;;;;;;8.69;77.80;99481.53;4409437;32;20077;-72
2020/12/20 01:35:49;;;;;;;12.85;1.73;;;;;;;8.64;77.92;99490.50;4394828;32;20034;-72
2020/12/20 01:38:15;;;;;;;7.75;2.15;;;;;;;8.62;77.98;99484.59;4396842;32;20068;-71
2020/12/20 01:40:41;;;;;;;13.07;2.15;;;;;;;8.58;78.25;99475.50;4392080;32;20535;-71
2020/12/20 01:43:07;;;;;;;13.05;1.95;;;;;;;8.59;78.04;99474.28;4399728;32;20459;-71
2020/12/20 01:45:32;;;;;;;13.55;1.73;;;;;;;8.59;78.32;99477.09;4397039;32;20405;-72
2020/12/20 01:47:58;;;;;;;12.73;1.75;;;;;;;8.56;78.62;99473.16;4395713;32;20042;-72
2020/12/20 01:50:24;;;;;;;9.52;1.77;;;;;;;8.54;78.86;99472.84;4398226;32;20078;-72
2020/12/20 01:52:50;;;;;;;10.43;1.92;;;;;;;8.59;78.72;99482.69;4396800;32;20070;-71
2020/12/20 01:55:19;;;;;;;12.93;2.10;;;;;;;8.59;78.60;99480.66;4401272;32;21301;-73
2020/12/20 01:57:45;;;;;;;13.18;1.90;;;;;;;8.60;78.42;99468.22;4396288;32;20041;-71
2020/12/20 02:00:11;;;;;;;14.18;2.35;;;;;;;8.61;78.50;99474.59;4398045;32;20088;-72
2020/12/20 02:02:36;;;;;;;16.37;2.33;;;;;;;8.54;78.58;99472.84;4400652;32;20721;-70
2020/12/20 02:05:03;;;;;;;10.60;1.52;;;;;;;8.58;78.55;99492.31;4397409;32;20411;-73
2020/12/20 02:07:29;;;;;;;10.50;1.67;;;;;;;8.57;78.38;99490.78;4398133;32;20041;-71
2020/12/20 02:09:55;;;;;;;8.38;1.77;;;;;;;8.55;78.77;99488.41;4396330;32;20120;-72
2020/12/20 02:12:26;;;;;;;11.15;2.10;;;;;;;8.63;78.49;99486.16;4398960;32;20141;-72
2020/12/20 02:14:53;;;;;;;12.73;1.83;;;;;;;8.61;78.35;99494.22;4396846;32;20058;-72
2020/12/20 02:17:19;;;;;;;9.57;1.50;;;;;;;8.56;78.25;99495.59;4399361;32;20502;-70
2020/12/20 02:19:45;;;;;;;11.95;1.98;;;;;;;8.58;78.33;99487.50;4394696;32;20090;-72
2020/12/20 02:22:11;;;;;;;13.88;2.33;;;;;;;8.60;78.14;99501.09;4400041;32;20074;-73
2020/12/20 02:24:36;;;;;;;8.25;1.80;;;;;;;8.66;77.97;99502.84;4399354;32;20124;-72
2020/12/20 02:27:02;;;;;;;15.85;2.03;;;;;;;8.71;77.44;99493.06;4399702;32;20145;-71
2020/12/20 02:29:27;;;;;;;5.60;1.50;;;;;;;8.60;77.68;99495.47;4399188;32;20104;-70
2020/12/20 02:31:53;;;;;;;12.00;2.53;;;;;;;8.63;77.78;99484.13;4401619;32;20093;-72
2020/12/20 02:34:19;;;;;;;11.32;1.67;;;;;;;8.64;77.73;99502.53;4399079;32;20113;-72
2020/12/20 02:36:45;;;;;;;17.37;2.08;;;;;;;8.68;77.29;99497.56;4393643;32;20048;-71
2020/12/20 02:39:11;;;;;;;7.85;1.48;;;;;;;8.74;77.15;99494.97;4396001;32;20098;-72
2020/12/20 02:41:37;;;;;;;19.23;2.22;;;;;;;8.66;77.00;99516.88;4397955;32;20030;-71
2020/12/20 02:44:03;;;;;;;8.60;1.98;;;;;;;8.68;77.09;99489.16;4393730;32;20374;-72
2020/12/20 02:46:30;;;;;;;12.80;2.05;;;;;;;8.60;77.10;99487.84;4394762;32;20076;-73
2020/12/20 02:48:57;;;;;;;11.18;1.62;;;;;;;8.56;77.27;99489.22;4395910;32;20433;-70
2020/12/20 02:51:23;;;;;;;13.20;1.58;;;;;;;8.53;77.27;99485.28;4396572;32;20053;-72
2020/12/20 02:53:49;;;;;;;15.38;2.10;;;;;;;8.48;77.44;99497.09;4397443;32;20057;-72
2020/12/20 02:56:15;;;;;;;7.75;1.40;;;;;;;8.41;77.62;99504.97;4398999;32;20074;-72
2020/12/20 02:58:40;;;;;;;11.30;1.73;;;;;;;8.43;77.35;99505.31;4395278;32;20518;-72
2020/12/20 03:01:06;;;;;;;8.27;1.60;;;;;;;8.46;77.27;99505.16;4393651;32;20184;-71
2020/12/20 03:03:32;;;;;;;5.00;1.05;;;;;;;8.52;76.91;99502.56;4396587;32;20061;-71
2020/12/20 03:05:58;;;;;;;11.38;1.58;;;;;;;8.45;76.92;99503.59;4394996;32;20402;-71
2020/12/20 03:08:24;;;;;;;10.98;2.05;;;;;;;8.43;76.76;99505.31;4391218;32;20065;-70
2020/12/20 03:10:50;;;;;;;9.13;1.10;;;;;;;8.36;77.05;99497.13;4393895;32;20422;-71
2020/12/20 03:13:16;;;;;;;10.85;1.40;;;;;;;8.42;76.84;99512.94;4398504;32;20079;-72
2020/12/20 03:15:43;;;;;;;9.80;1.58;;;;;;;8.38;76.95;99512.28;4399463;32;20049;-71
2020/12/20 03:18:09;;;;;;;4.72;1.08;;;;;;;8.39;76.85;99513.84;4393582;32;20078;-72
2020/12/20 03:20:35;;;;;;;11.75;1.25;;;;;;;8.38;77.01;99539.50;4395865;32;20100;-73
2020/12/20 03:23:01;;;;;;;13.93;1.33;;;;;;;8.43;76.65;99516.53;4392637;32;20202;-71
2020/12/20 03:25:27;;;;;;;10.38;1.08;;;;;;;8.38;76.44;99512.28;4397391;32;20034;-73
2020/12/20 03:27:53;;;;;;;10.27;1.58;;;;;;;8.42;76.45;99521.34;4395685;32;20081;-71
2020/12/20 03:30:19;;;;;;;8.02;1.20;;;;;;;8.48;76.22;99522.31;4391349;32;20041;-73
2020/12/20 03:32:45;;;;;;;8.70;1.10;;;;;;;8.48;76.12;99532.75;4395186;32;20073;-72
2020/12/20 03:35:12;;;;;;;12.25;1.40;;;;;;;8.43;76.25;99548.12;4396127;32;20109;-71
2020/12/20 03:37:37;;;;;;;8.73;1.12;;;;;;;8.51;76.11;99554.25;4391757;32;20035;-73
2020/12/20 03:40:04;;;;;;;11.48;1.70;;;;;;;8.48;75.92;99555.97;4396293;32;20588;-71
2020/12/20 03:42:29;;;;;;;9.00;1.23;;;;;;;8.51;75.79;99557.06;4395237;32;20069;-71
2020/12/20 03:44:55;;;;;;;5.40;1.27;;;;;;;8.45;75.76;99556.88;4396414;32;20366;-72
2020/12/20 03:47:20;;;;;;;13.93;1.77;;;;;;;8.48;75.52;99550.34;4398053;32;20082;-72
2020/12/20 03:49:46;;;;;;;8.70;1.25;;;;;;;8.48;75.71;99555.97;4396495;32;20152;-71
2020/12/20 03:52:12;;;;;;;6.62;1.42;;;;;;;8.51;75.46;99557.88;4396510;32;20046;-72
2020/12/20 03:54:37;;;;;;;8.18;1.12;;;;;;;8.51;75.23;99543.84;4396312;32;20077;-72
2020/12/20 03:57:03;;;;;;;9.30;1.40;;;;;;;8.51;74.85;99549.44;4395661;32;20066;-73
2020/12/20 03:59:29;;;;;;;11.43;1.00;;;;;;;8.43;75.36;99558.56;4388475;32;20053;-72
2020/12/20 04:01:54;;;;;;;7.37;1.00;;;;;;;8.40;75.72;99573.50;4391196;32;20104;-72
2020/12/20 04:04:20;;;;;;;8.65;1.37;;;;;;;8.37;76.22;99577.97;4396222;32;20463;-73
2020/12/20 04:06:46;;;;;;;10.75;1.20;;;;;;;8.32;76.20;99586.16;4396959;32;20078;-73
2020/12/20 04:09:11;;;;;;;8.25;1.20;;;;;;;8.28;76.87;99577.09;4397363;32;20093;-71
2020/12/20 04:11:37;;;;;;;11.57;1.25;;;;;;;8.27;76.81;99570.69;4397749;32;20026;-72
2020/12/20 04:14:03;;;;;;;7.70;1.10;;;;;;;8.31;76.66;99579.00;4395499;32;20045;-73
2020/12/20 04:16:29;;;;;;;7.62;1.12;;;;;;;8.30;77.43;99583.81;4397065;32;20414;-73
2020/12/20 04:18:54;;;;;;;6.78;1.65;;;;;;;8.24;77.78;99582.81;4397225;32;20354;-71
2020/12/20 04:21:20;;;;;;;9.95;1.30;;;;;;;8.29;77.34;99587.84;4394456;32;20437;-72
2020/12/20 04:23:46;;;;;;;14.95;1.98;;;;;;;8.30;77.48;99589.41;4397648;32;20477;-72
2020/12/20 04:26:12;;;;;;;6.20;1.55;;;;;;;8.25;77.73;99598.38;4395154;32;20085;-72
2020/12/20 04:28:37;;;;;;;13.05;1.50;;;;;;;8.28;77.52;99591.88;4395591;32;20058;-72
2020/12/20 04:31:03;;;;;;;7.43;1.48;;;;;;;8.39;77.34;99611.94;4394426;32;20026;-72
2020/12/20 04:33:29;;;;;;;9.48;1.70;;;;;;;8.44;77.96;99604.97;4395404;32;20085;-72
2020/12/20 04:35:54;;;;;;;16.50;2.47;;;;;;;8.35;77.49;99602.09;4397998;32;20030;-71
2020/12/20 04:38:20;;;;;;;12.27;1.30;;;;;;;8.32;77.50;99606.56;4395226;32;20096;-71
2020/12/20 04:40:45;;;;;;;12.73;1.83;;;;;;;8.45;77.43;99610.13;4391652;32;20027;-72
2020/12/20 04:43:12;;;;;;;8.85;1.37;;;;;;;8.36;77.32;99604.44;4393930;32;20068;-72
2020/12/20 04:45:39;;;;;;;11.55;1.48;;;;;;;8.45;77.54;99606.53;4395019;32;20078;-74
2020/12/20 04:48:05;;;;;;;12.20;2.22;;;;;;;8.37;77.87;99616.44;4396821;32;20042;-73
2020/12/20 04:50:32;;;;;;;11.98;1.80;;;;;;;8.59;77.81;99620.09;4391851;32;20066;-72
2020/12/20 04:52:59;;;;;;;11.15;1.60;;;;;;;8.33;77.84;99610.94;4395267;32;20029;-74
2020/12/20 04:55:26;;;;;;;10.13;1.80;;;;;;;8.44;77.74;99619.00;4396620;32;20018;-72
2020/12/20 04:57:53;;;;;;;9.20;1.73;;;;;;;8.46;77.87;99616.50;4391945;32;20069;-73
2020/12/20 05:00:19;;;;;;;8.35;1.85;;;;;;;8.38;77.77;99618.78;4394330;32;20160;-73
2020/12/20 05:02:45;;;;;;;10.18;2.20;;;;;;;8.44;78.12;99627.41;4395021;32;20019;-73
2020/12/20 05:05:12;;;;;;;11.82;1.95;;;;;;;8.40;77.94;99637.97;4397191;32;20115;-73
2020/12/20 05:07:39;;;;;;;14.38;1.95;;;;;;;8.46;77.92;99631.31;4397892;32;20076;-73
2020/12/20 05:10:06;;;;;;;11.35;1.73;;;;;;;8.38;77.79;99638.41;4397340;32;20035;-72
2020/12/20 05:12:34;;;;;;;9.82;1.52;;;;;;;8.56;77.80;99641.38;4404241;32;20078;-74
2020/12/20 05:15:17;;;;;;;16.30;1.95;;;;;;;8.53;77.31;99653.50;4396419;32;20034;-73
2020/12/20 05:17:43;;;;;;;11.68;1.60;;;;;;;8.74;76.68;99652.03;4393612;32;20108;-74
2020/12/20 05:20:13;;;;;;;12.30;1.73;;;;;;;8.76;76.73;99660.75;4399289;32;20466;-74
2020/12/20 05:22:40;;;;;;;12.13;2.47;;;;;;;8.54;76.84;99655.09;4394730;32;20438;-73
2020/12/20 05:25:21;;;;;;;12.70;2.12;;;;;;;8.70;76.83;99668.97;4395587;32;20365;-73
2020/12/20 05:27:46;;;;;;;12.37;1.33;;;;;;;8.82;75.55;99664.56;4397640;32;20073;-73
2020/12/20 05:30:17;;;;;;;12.95;1.60;;;;;;;8.82;75.66;99670.97;4394754;32;20151;-74
2020/12/20 05:32:45;;;;;;;10.10;1.80;;;;;;;8.82;75.31;99673.78;4395703;32;20050;-73
2020/12/20 05:35:14;;;;;;;12.00;1.40;;;;;;;8.94;75.85;99677.78;4396236;32;20074;-72
2020/12/20 05:37:41;;;;;;;15.90;1.50;;;;;;;9.07;75.48;99684.12;4398151;32;20096;-73
2020/12/20 05:40:09;;;;;;;12.55;1.50;;;;;;;8.86;75.05;99676.44;4392817;32;20395;-74
2020/12/20 05:42:35;;;;;;;8.30;1.58;;;;;;;8.81;74.94;99680.59;4396767;32;20065;-74
2020/12/20 05:45:06;;;;;;;10.52;1.60;;;;;;;8.91;74.22;99678.69;4399687;32;20066;-73
2020/12/20 05:47:32;;;;;;;6.20;1.17;;;;;;;8.94;73.95;99675.78;4398722;32;20102;-73
2020/12/20 05:49:58;;;;;;;10.57;1.37;;;;;;;8.88;74.48;99679.59;4394776;32;20403;-72
2020/12/20 05:52:23;;;;;;;10.93;1.40;;;;;;;8.82;74.50;99672.97;4395457;32;20124;-73
2020/12/20 05:54:49;;;;;;;14.57;1.12;;;;;;;8.79;74.88;99671.88;4394216;32;20065;-74
2020/12/20 05:57:19;;;;;;;8.73;1.37;;;;;;;8.74;74.87;99680.09;4399621;32;20046;-72
2020/12/20 05:59:48;;;;;;;7.28;0.98;;;;;;;8.73;74.93;99675.69;4395370;32;20053;-72
2020/12/20 06:02:14;;;;;;;9.10;1.92;;;;;;;8.70;75.13;99677.38;4396683;32;20042;-72
2020/12/20 06:04:41;;;;;;;8.70;1.60;;;;;;;8.56;75.46;99677.84;4400397;32;20026;-74
2020/12/20 06:07:08;;;;;;;6.32;1.30;;;;;;;8.57;75.68;99690.66;4395227;32;20053;-74
2020/12/20 06:09:55;;;;;;;7.72;1.08;;;;;;;8.51;75.66;99689.63;4394659;32;20050;-73
2020/12/20 06:12:24;;;;;;;11.80;1.27;;;;;;;8.52;75.83;99687.59;4395845;32;20058;-73
2020/12/20 06:14:51;;;;;;;7.95;1.42;;;;;;;8.38;76.34;99685.28;4394271;32;20052;-74
2020/12/20 06:19:59;;;;;;;4.82;1.33;;;;;;;8.48;76.48;99696.16;3984266;32;15119411;-72
2020/12/20 06:22:30;;;;;;;9.48;1.65;;;;;;;8.31;76.62;99691.88;4440372;32;20025;-74
2020/12/20 06:24:59;;;;;;;8.25;1.58;;;;;;;8.36;76.82;99701.75;4438380;32;20414;-73
2020/12/20 06:27:27;;;;;;;11.50;1.60;;;;;;;8.24;76.41;99708.12;4434515;32;20339;-73
2020/12/20 06:29:55;;;;;;;7.68;1.30;;;;;;;8.17;76.74;99709.88;4433794;32;20483;-73
2020/12/20 06:32:34;;;;;;;11.90;1.05;;;;;;;8.20;76.97;99708.22;4438118;32;20045;-74
2020/12/20 06:35:11;;;;;;;6.43;1.20;;;;;;;8.26;76.78;99719.69;4431707;32;20092;-73
2020/12/20 06:37:41;;;;;;;8.73;1.37;;;;;;;8.27;76.82;99726.84;4425303;32;20389;-73
2020/12/20 06:40:06;;;;;;;11.27;1.50;;;;;;;8.28;76.88;99720.81;4429410;32;20064;-73
2020/12/20 06:42:38;;;;;;;10.10;1.40;;;;;;;8.18;76.64;99727.50;4431279;32;20060;-73
2020/12/20 06:45:20;;;;;;;8.18;1.58;;;;;;;8.17;76.60;99723.91;4429041;32;20171;-73
2020/12/20 06:47:51;;;;;;;4.45;1.30;;;;;;;8.20;76.67;99725.81;4428327;32;20033;-73
2020/12/20 06:50:41;;;;;;;7.30;1.98;;;;;;;8.15;77.09;99717.19;4431969;32;20463;-73
2020/12/20 06:53:08;;;;;;;10.95;1.20;;;;;;;8.16;77.04;99730.75;4432287;32;20037;-73
2020/12/20 06:55:35;;;;;;;12.65;1.92;;;;;;;8.16;77.41;99727.94;4431251;32;20094;-73
2020/12/20 07:05:56;;;;;;;9.95;1.50;;;;;;;8.53;76.18;99746.03;3987834;32;15025961;-73
2020/12/20 07:11:01;;;;;;;5.85;1.30;;;;;;;8.19;77.12;99759.88;3986809;32;15022824;-73
2020/12/20 07:16:13;;;;;;;10.35;1.40;;;;;;;8.30;76.60;99754.78;4010082;31;15017828;-75
2020/12/20 07:24:17;;;;;;;7.55;1.70;;;;;;;8.73;75.72;99762.63;4001234;31;15017840;-74
2020/12/20 07:26:45;;;;;;;9.23;1.60;;;;;;;8.73;75.72;99762.63;4457465;32;20025;-75
2020/12/20 07:29:11;;;;;;;8.25;1.77;;;;;;;8.27;76.41;99766.88;4457863;32;20060;-75
2020/12/20 07:31:36;;;;;;;12.18;1.80;;;;;;;8.20;76.74;99772.69;4459288;32;20339;-74
2020/12/20 07:34:04;;;;;;;9.52;1.73;;;;;;;8.22;76.97;99784.25;4456061;32;20052;-75
2020/12/20 07:36:30;;;;;;;6.03;1.92;;;;;;;8.10;77.48;99776.56;4450715;32;20440;-75
2020/12/20 07:38:56;;;;;;;10.40;2.03;;;;;;;7.93;77.86;99783.47;4451438;32;20421;-74
2020/12/20 07:41:24;;;;;;;7.47;2.08;;;;;;;8.07;77.65;99783.84;4453965;32;20487;-75
2020/12/20 07:43:51;;;;;;;22.50;2.72;;;;;;;8.13;77.30;99778.47;4450252;32;20029;-74
2020/12/20 07:46:18;;;;;;;11.38;1.92;;;;;;;8.14;77.25;99783.62;4451327;32;20073;-75
2020/12/20 07:48:44;;;;;;;4.22;1.30;;;;;;;7.94;77.51;99779.44;4453591;32;20110;-75
2020/12/20 07:51:15;;;;;;;10.70;1.62;;;;;;;8.00;77.38;99781.25;4447041;32;20034;-73
2020/12/20 07:53:58;;;;;;;10.15;1.33;;;;;;;8.05;77.16;99775.13;4451724;32;20055;-74
2020/12/20 07:56:27;;;;;;;11.10;1.40;;;;;;;8.11;77.03;99772.56;4448964;32;20048;-73
2020/12/20 07:58:54;;;;;;;9.10;1.52;;;;;;;8.08;76.99;99781.84;4450244;32;20225;-74
2020/12/20 08:01:21;;;;;;;11.93;1.58;;;;;;;8.10;76.93;99779.37;4448725;32;20028;-76
2020/12/20 08:03:47;;;;;;;5.07;0.95;;;;;;;8.17;76.42;99793.19;4451679;32;20071;-74
2020/12/20 08:06:15;;;;;;;6.45;1.08;;;;;;;8.14;76.04;99791.28;4447366;32;20021;-76
2020/12/20 08:08:42;;;;;;;8.43;0.90;;;;;;;8.17;75.79;99798.78;4434042;32;20077;-76
2020/12/20 08:11:27;;;;;;;6.70;0.98;;;;;;;7.88;76.82;99790.41;4449633;32;20072;-74
2020/12/20 08:16:33;;;;;;;4.90;1.10;;;;;;;8.13;76.75;99807.28;3988427;32;15023213;-76
2020/12/20 08:19:02;;;;;;;7.85;0.77;;;;;;;8.13;76.75;99807.28;4434873;32;20045;-73
2020/12/20 08:24:45;;;;;;;5.62;0.98;;;;;;;8.09;77.22;99811.44;3979379;31;15705653;-75
2020/12/20 08:29:53;;;;;;;9.85;1.27;;;;;;;8.14;76.95;99803.25;4111569;31;15016645;-75
2020/12/20 08:32:22;;;;;;;7.40;1.10;;;;;;;8.14;76.95;99803.25;4466988;32;20105;-74
2020/12/20 08:34:49;;;;;;;5.62;1.20;;;;;;;7.74;77.67;99807.59;4450173;32;20124;-74
2020/12/20 08:37:21;;;;;;;7.10;1.50;;;;;;;7.67;77.71;99809.84;4449883;32;20049;-75
2020/12/20 08:39:47;;;;;;;3.58;1.00;;;;;;;7.77;77.50;99808.75;4453744;32;20037;-74
2020/12/20 08:42:16;;;;;;;4.47;1.30;;;;;;;7.78;77.87;99819.50;4451717;32;20068;-75
2020/12/20 08:44:45;;;;;;;7.30;1.30;;;;;;;7.81;77.34;99820.63;4452246;32;20045;-74
2020/12/20 08:47:17;;;;;;;6.37;1.45;;;;;;;7.80;77.22;99825.44;4449499;32;20084;-73
2020/12/20 08:49:59;;;;;;;7.62;1.35;;;;;;;7.88;77.41;99837.22;4450816;32;20418;-75
2020/12/20 08:52:27;;;;;;;9.50;1.25;;;;;;;7.92;76.96;99843.53;4448136;32;20029;-73
2020/12/20 08:54:55;;;;;;;94.95;10.93;;;;;;;7.94;77.20;99849.47;4450940;32;20051;-73
2020/12/20 08:57:24;;;;;;;8.15;1.45;;;;;;;7.95;77.17;99856.66;4451920;32;20088;-74
2020/12/20 08:59:50;;;;;;;15.57;2.22;;;;;;;7.99;77.35;99855.34;4447991;32;20076;-74
2020/12/20 09:02:21;;;;;;;12.25;2.37;;;;;;;8.04;77.17;99851.22;4451675;32;20414;-75
2020/12/20 09:05:05;;;;;;;9.73;1.87;;;;;;;8.10;77.08;99857.81;4449789;32;20104;-74
2020/12/20 09:12:58;;;;;;;10.35;2.33;;;;;;;8.81;75.42;99867.78;4003397;31;15017278;-74
2020/12/20 09:18:25;;;;;;;13.55;2.00;;;;;;;9.11;74.95;99878.47;3987932;32;15025523;-75
2020/12/20 09:20:51;;;;;;;9.50;2.28;;;;;;;9.11;74.95;99878.47;4434739;32;20079;-75
2020/12/20 09:23:25;;;;;;;14.30;2.30;;;;;;;8.62;75.81;99875.16;4437961;32;20404;-75
2020/12/20 09:25:59;;;;;;;8.95;1.98;;;;;;;8.72;75.84;99884.50;4438099;32;20065;-76
2020/12/20 09:28:26;;;;;;;12.60;2.50;;;;;;;8.79;75.82;99890.66;4439853;32;20395;-75
2020/12/20 09:30:54;;;;;;;15.32;2.60;;;;;;;8.84;75.25;99898.50;4437976;32;20057;-76
2020/12/20 09:33:36;;;;;;;11.38;2.37;;;;;;;8.89;75.33;99902.78;4438533;32;20030;-76
2020/12/20 09:41:23;;;;;;;11.93;2.12;;;;;;;9.68;72.85;99914.66;3984756;32;15024864;-74
2020/12/20 09:43:50;;;;;;;7.00;2.33;;;;;;;9.68;72.85;99914.66;4437882;32;20029;-73
2020/12/20 09:46:22;;;;;;;10.75;2.47;;;;;;;9.26;73.49;99922.47;4433457;32;20521;-74
2020/12/20 09:48:50;;;;;;;13.25;2.90;;;;;;;9.41;72.92;99923.59;4437997;32;20452;-76
2020/12/20 09:51:17;;;;;;;10.73;2.85;;;;;;;9.57;72.87;99917.84;4438996;32;20026;-74
2020/12/20 09:53:43;;;;;;;12.75;2.72;;;;;;;9.67;72.05;99922.31;4439211;32;20065;-75
2020/12/20 09:56:08;;;;;;;9.75;2.55;;;;;;;9.67;72.59;99919.50;4440511;32;20068;-75
2020/12/20 09:58:34;;;;;;;11.93;3.42;;;;;;;9.87;71.62;99911.59;4438583;32;20153;-76
2020/12/20 10:01:00;;;;;;;10.60;2.80;;;;;;;9.96;71.27;99910.88;4440698;32;20377;-76
2020/12/20 10:03:27;;;;;;;12.90;2.80;;;;;;;9.98;70.63;99912.00;4434853;32;20056;-75
2020/12/20 10:05:58;;;;;;;14.20;3.22;;;;;;;9.92;71.48;99910.25;4439982;32;20025;-75
2020/12/20 10:08:25;;;;;;;10.07;2.25;;;;;;;10.07;70.84;99909.31;4438223;32;20069;-74
2020/12/20 10:10:52;;;;;;;19.42;3.53;;;;;;;10.04;70.58;99917.84;4437053;32;20038;-74
2020/12/20 10:13:18;;;;;;;9.93;2.60;;;;;;;10.22;69.91;99917.25;4435252;32;20442;-74
2020/12/20 10:15:44;;;;;;;14.50;3.12;;;;;;;10.34;70.21;99917.19;4436920;32;20065;-76
2020/12/20 10:18:09;;;;;;;11.98;2.78;;;;;;;10.30;69.97;99918.53;4438835;32;20041;-76
2020/12/20 10:20:35;;;;;;;15.00;3.17;;;;;;;10.23;70.20;99908.34;4438290;32;20026;-75
2020/12/20 10:23:00;;;;;;;12.77;3.10;;;;;;;10.36;70.50;99906.25;4434578;32;20021;-74
2020/12/20 10:25:27;;;;;;;17.90;2.70;;;;;;;10.39;69.95;99902.53;4431615;32;20042;-73
2020/12/20 10:27:54;;;;;;;8.88;2.10;;;;;;;10.55;69.09;99924.06;4438378;32;20041;-75
2020/12/20 10:30:20;;;;;;;14.27;2.80;;;;;;;10.67;69.09;99901.47;4434000;32;20055;-75
2020/12/20 10:32:47;;;;;;;11.48;2.47;;;;;;;10.83;68.91;99906.88;4435805;32;20062;-76
2020/12/20 10:35:14;;;;;;;9.48;1.95;;;;;;;10.96;68.74;99907.63;4424956;32;20014;-75
2020/12/20 10:37:41;;;;;;;12.98;1.90;;;;;;;10.88;68.34;99902.69;4424486;32;20624;-73
2020/12/20 10:40:07;;;;;;;16.60;3.15;;;;;;;10.82;68.21;99921.41;4416347;32;20104;-76
2020/12/20 10:42:32;;;;;;;15.80;3.55;;;;;;;10.78;69.08;99915.94;4417754;32;20096;-74
2020/12/20 10:44:58;;;;;;;13.13;2.42;;;;;;;10.79;69.17;99916.72;4424058;32;20449;-75
2020/12/20 10:47:24;;;;;;;10.13;2.12;;;;;;;10.74;68.89;99914.50;4418058;32;20064;-75
2020/12/20 10:49:51;;;;;;;12.65;2.62;;;;;;;10.60;69.23;99915.03;4420200;32;20316;-76
2020/12/20 10:52:16;;;;;;;16.58;2.78;;;;;;;10.48;69.87;99919.47;4411932;32;20038;-73
2020/12/20 10:54:44;;;;;;;13.62;2.62;;;;;;;10.46;70.11;99912.75;4413407;32;20109;-73
2020/12/20 10:57:10;;;;;;;11.77;2.00;;;;;;;10.59;69.96;99927.53;4411106;32;21407;-74
2020/12/20 10:59:35;;;;;;;18.48;2.65;;;;;;;10.52;70.45;99925.00;4410431;32;20117;-74
2020/12/20 11:02:02;;;;;;;11.55;2.33;;;;;;;10.45;70.58;99911.97;4417436;32;20030;-76
2020/12/20 11:04:28;;;;;;;13.18;2.37;;;;;;;10.56;69.89;99906.75;4410953;32;20030;-74
2020/12/20 11:06:55;;;;;;;19.05;2.53;;;;;;;10.64;70.68;99899.59;4412135;32;20065;-76
2020/12/20 11:09:21;;;;;;;12.05;2.67;;;;;;;10.63;69.99;99905.66;4407785;32;20116;-73
2020/12/20 11:11:46;;;;;;;12.68;2.90;;;;;;;10.55;70.27;99910.00;4413676;32;20030;-74
2020/12/20 11:14:12;;;;;;;9.38;2.30;;;;;;;10.66;69.47;99911.19;4409147;32;20057;-73
2020/12/20 11:16:37;;;;;;;13.38;2.33;;;;;;;10.49;69.63;99920.28;4407788;32;20046;-74
2020/12/20 11:19:03;;;;;;;16.17;2.47;;;;;;;10.43;69.89;99920.06;4406741;32;20494;-75
2020/12/20 11:21:29;;;;;;;8.48;2.17;;;;;;;10.54;69.77;99912.03;4410737;32;20034;-75
2020/12/20 11:23:55;;;;;;;14.95;2.28;;;;;;;10.49;70.21;99920.28;4407513;32;20111;-76
2020/12/20 11:26:23;;;;;;;15.13;2.37;;;;;;;10.40;70.49;99906.91;4406946;32;20034;-76
2020/12/20 11:28:51;;;;;;;8.73;1.92;;;;;;;10.27;70.50;99903.38;4410511;32;20038;-73
2020/12/20 11:31:19;;;;;;;13.18;2.62;;;;;;;10.40;70.54;99906.91;4407673;32;20030;-74
2020/12/20 11:33:45;;;;;;;7.25;1.90;;;;;;;10.33;70.62;99900.75;4409282;32;20093;-74
2020/12/20 11:36:19;;;;;;;10.70;2.28;;;;;;;10.53;70.30;99909.69;4411568;32;20099;-73
2020/12/20 11:38:45;;;;;;;9.98;2.12;;;;;;;10.57;69.60;99913.12;4410661;32;20636;-76
2020/12/20 11:41:14;;;;;;;15.57;3.00;;;;;;;10.68;69.75;99913.53;4408892;32;20045;-73
2020/12/20 11:43:40;;;;;;;10.27;1.85;;;;;;;10.49;70.81;99921.03;4409860;32;20029;-73
2020/12/20 11:46:06;;;;;;;10.98;2.85;;;;;;;10.56;69.95;99909.56;4411664;32;20074;-73
2020/12/20 11:48:32;;;;;;;10.30;2.33;;;;;;;10.63;70.71;99920.53;4413693;32;20029;-73
2020/12/20 11:50:58;;;;;;;11.25;2.22;;;;;;;10.82;69.49;99915.78;4410285;32;20053;-75
2020/12/20 11:53:25;;;;;;;10.60;1.75;;;;;;;10.94;68.09;99915.72;4411838;32;20014;-74
2020/12/20 11:55:51;;;;;;;20.95;2.15;;;;;;;11.05;68.12;99910.44;4413019;32;20026;-75
2020/12/20 11:58:17;;;;;;;9.88;1.10;;;;;;;11.24;67.59;99900.84;4414282;32;20092;-74
2020/12/20 12:00:44;;;;;;;11.02;2.08;;;;;;;11.42;65.49;99911.41;4412073;32;20064;-73
2020/12/20 12:03:10;;;;;;;8.65;1.95;;;;;;;11.79;63.96;99907.47;4408141;32;20103;-76
2020/12/20 12:05:37;;;;;;;6.87;1.50;;;;;;;11.87;65.27;99900.25;4406223;32;20443;-74
2020/12/20 12:08:05;;;;;;;8.85;1.45;;;;;;;12.04;64.09;99918.47;4411173;32;20030;-74
2020/12/20 12:10:32;;;;;;;8.25;1.65;;;;;;;12.21;64.03;99914.06;4411779;32;20026;-73
2020/12/20 12:12:57;;;;;;;5.62;1.10;;;;;;;12.33;63.14;99909.56;4414550;32;20066;-73
2020/12/20 12:15:23;;;;;;;4.47;1.23;;;;;;;12.60;61.55;99912.34;4413160;32;20057;-74
2020/12/20 12:17:49;;;;;;;6.45;1.60;;;;;;;12.66;61.20;99904.81;4411694;32;20143;-73